Time;durP1;ratioP1;P1;durP2;ratioP2;P2;SDS_P1;SDS_P2;PMS_P1;PMS_P2;Temp;Humidity;BMP_temperature;BMP_pressure;BME280_temperature;BME280_humidity;BME280_pressure;Samples;Min_cycle;Max_cycle;Signal;HPM_P1;HPM_P2
2022/12/04 00:00:34;;;;;;;0.00;0.00;;;;;;;9.24;67.38;101414.44;7359611;19;20011;-53
2022/12/04 00:03:00;;;;;;;0.00;0.00;;;;;;;9.25;67.29;101414.41;7359296;19;20089;-55
2022/12/04 00:05:25;;;;;;;0.00;0.00;;;;;;;9.23;67.23;101416.19;7360359;19;20036;-54
2022/12/04 00:07:51;;;;;;;0.00;0.00;;;;;;;9.27;67.03;101422.22;7360752;19;20628;-56
2022/12/04 00:10:16;;;;;;;0.00;0.00;;;;;;;9.25;67.12;101418.78;7361405;19;20006;-55
2022/12/04 00:12:42;;;;;;;0.00;0.00;;;;;;;9.18;67.18;101406.66;7359797;19;20022;-55
2022/12/04 00:15:08;;;;;;;0.00;0.00;;;;;;;9.26;66.96;101417.88;7361357;19;20041;-54
2022/12/04 00:17:33;;;;;;;0.00;0.00;;;;;;;9.25;67.19;101418.78;7365200;19;20800;-55
2022/12/04 00:19:59;;;;;;;0.10;0.10;;;;;;;9.25;66.80;101413.56;7365242;19;20018;-55
2022/12/04 00:22:24;;;;;;;0.03;0.03;;;;;;;9.22;67.06;101411.81;7362958;19;20053;-55
2022/12/04 00:24:49;;;;;;;0.00;0.00;;;;;;;9.19;67.35;101408.38;7360579;19;20699;-55
2022/12/04 00:27:15;;;;;;;0.10;0.10;;;;;;;9.20;67.43;101415.31;7364632;19;20594;-54
2022/12/04 00:29:40;;;;;;;0.00;0.00;;;;;;;9.21;66.98;101410.09;7366053;19;20815;-55
2022/12/04 00:32:06;;;;;;;0.00;0.00;;;;;;;9.08;66.88;101379.78;7364898;19;20011;-53
2022/12/04 00:34:31;;;;;;;0.05;0.05;;;;;;;9.18;67.24;101401.44;7361272;19;20074;-53
2022/12/04 00:36:56;;;;;;;0.00;0.00;;;;;;;9.14;67.06;101399.72;7362221;19;20041;-56
2022/12/04 00:39:22;;;;;;;0.10;0.10;;;;;;;9.18;67.30;101401.44;7361870;19;20020;-56
2022/12/04 00:41:47;;;;;;;0.00;0.00;;;;;;;9.18;67.44;101406.66;7363462;19;20007;-56
2022/12/04 00:44:13;;;;;;;0.00;0.00;;;;;;;9.03;67.27;101382.41;7361926;19;20014;-55
2022/12/04 00:46:38;;;;;;;0.00;0.00;;;;;;;9.15;67.64;101409.28;7365336;19;20561;-54
2022/12/04 00:49:04;;;;;;;0.00;0.00;;;;;;;9.13;67.48;101405.81;7364641;19;20025;-51
2022/12/04 00:51:29;;;;;;;0.10;0.10;;;;;;;9.13;67.54;101405.81;7365310;19;20030;-56
2022/12/04 00:53:55;;;;;;;0.08;0.08;;;;;;;9.00;67.63;101377.22;7365751;19;20379;-53
2022/12/04 00:56:26;;;;;;;0.00;0.00;;;;;;;9.09;67.31;101392.78;7364605;19;20014;-55
2022/12/04 00:58:56;;;;;;;0.10;0.10;;;;;;;9.08;67.55;101396.28;7365556;19;20019;-54
2022/12/04 01:01:23;;;;;;;0.05;0.05;;;;;;;9.05;67.58;101388.47;7363169;19;20010;-56
2022/12/04 01:03:49;;;;;;;0.00;0.00;;;;;;;9.02;67.80;101388.50;7365676;19;20030;-54
2022/12/04 01:06:18;;;;;;;0.00;0.00;;;;;;;8.94;67.80;101372.03;7363543;19;20011;-56
2022/12/04 01:08:44;;;;;;;0.10;0.10;;;;;;;8.87;67.63;101364.25;7364798;19;20934;-55
2022/12/04 01:11:09;;;;;;;0.00;0.00;;;;;;;8.97;68.23;101382.47;7364434;19;20013;-55
2022/12/04 01:13:35;;;;;;;0.10;0.10;;;;;;;8.97;68.12;101387.66;7358979;19;20014;-55
2022/12/04 01:16:00;;;;;;;0.00;0.00;;;;;;;8.95;67.78;101386.78;7365351;19;20026;-53
2022/12/04 01:18:26;;;;;;;0.00;0.00;;;;;;;8.95;67.64;101394.59;7364108;19;20034;-56
2022/12/04 01:20:52;;;;;;;0.00;0.00;;;;;;;8.93;67.87;101393.75;7365709;19;20025;-56
2022/12/04 01:23:18;;;;;;;0.08;0.08;;;;;;;8.91;67.69;101387.66;7365712;19;20006;-56
2022/12/04 01:25:54;;;;;;;0.00;0.00;;;;;;;8.91;67.66;101390.28;7364256;19;20011;-55
2022/12/04 01:28:20;;;;;;;0.10;0.10;;;;;;;8.89;68.12;101399.84;7361861;19;20006;-56
2022/12/04 01:31:03;;;;;;;0.00;0.00;;;;;;;8.87;67.83;101404.22;7365294;19;20645;-55
2022/12/04 01:33:31;;;;;;;0.00;0.00;;;;;;;8.87;68.17;101399.00;7363799;19;20023;-55
2022/12/04 01:35:58;;;;;;;0.03;0.03;;;;;;;8.84;68.35;101388.59;7364104;19;20093;-57
2022/12/04 01:38:24;;;;;;;0.00;0.00;;;;;;;8.86;68.53;101384.22;7364192;19;20013;-56
2022/12/04 01:40:49;;;;;;;0.00;0.00;;;;;;;8.84;68.10;101385.97;7364681;19;20045;-54
2022/12/04 01:43:16;;;;;;;0.00;0.00;;;;;;;8.86;68.15;101384.22;7363824;19;20430;-55
2022/12/04 01:45:49;;;;;;;0.10;0.10;;;;;;;8.86;68.21;101381.63;7364381;19;20014;-56
2022/12/04 01:48:34;;;;;;;0.10;0.10;;;;;;;8.84;67.94;101389.44;7360834;19;20841;-54
2022/12/04 01:51:05;;;;;;;0.00;0.00;;;;;;;8.82;67.84;101377.31;7364400;19;20021;-55
2022/12/04 01:53:33;;;;;;;0.00;0.00;;;;;;;8.67;68.26;101367.84;7361095;19;20006;-56
2022/12/04 01:56:00;;;;;;;0.00;0.00;;;;;;;8.72;68.13;101380.84;7363823;19;20010;-56
2022/12/04 01:58:30;;;;;;;0.00;0.00;;;;;;;8.71;68.29;101381.69;7364084;19;20014;-55
2022/12/04 02:01:00;;;;;;;0.00;0.00;;;;;;;8.68;67.93;101385.19;7363345;19;20007;-52
2022/12/04 02:03:26;;;;;;;0.00;0.00;;;;;;;8.52;67.77;101362.69;7363061;19;20006;-56
2022/12/04 02:05:51;;;;;;;0.00;0.00;;;;;;;8.55;68.02;101384.34;7362710;19;20045;-56
2022/12/04 02:08:16;;;;;;;0.10;0.10;;;;;;;8.51;68.22;101385.22;7363800;19;20037;-55
2022/12/04 02:10:57;;;;;;;0.00;0.00;;;;;;;8.48;68.07;101390.47;7364798;19;20665;-54
2022/12/04 02:13:33;;;;;;;0.00;0.00;;;;;;;8.33;67.68;101374.84;7365257;19;21461;-55
2022/12/04 02:16:12;;;;;;;0.00;0.00;;;;;;;8.29;67.86;101365.31;7364333;19;20010;-55
2022/12/04 02:18:57;;;;;;;0.00;0.00;;;;;;;8.42;68.09;101389.63;7360548;19;20023;-56
2022/12/04 02:21:35;;;;;;;0.00;0.00;;;;;;;8.38;68.23;101391.34;7363550;19;20011;-55
2022/12/04 02:24:12;;;;;;;0.00;0.00;;;;;;;8.39;68.16;101384.41;7361886;19;20021;-56
2022/12/04 02:27:05;;;;;;;0.00;0.00;;;;;;;8.38;68.05;101386.16;7358669;19;20014;-53
2022/12/04 02:29:50;;;;;;;0.00;0.00;;;;;;;8.32;68.15;101386.13;7260164;19;2004457;-54
2022/12/04 02:32:44;;;;;;;0.00;0.00;;;;;;;8.32;68.20;101381.78;7362145;19;20007;-53
2022/12/04 02:35:24;;;;;;;0.00;0.00;;;;;;;8.40;68.20;101392.19;7260003;19;2004601;-52
2022/12/04 02:37:58;;;;;;;0.00;0.00;;;;;;;8.40;68.71;101397.41;7363154;19;20041;-55
2022/12/04 02:40:28;;;;;;;0.00;0.00;;;;;;;8.40;68.77;101394.81;7359956;19;20006;-56
2022/12/04 02:43:33;;;;;;;0.00;0.00;;;;;;;8.43;68.04;101384.41;7364112;19;20769;-52
2022/12/04 02:46:04;;;;;;;0.10;0.10;;;;;;;8.41;68.54;101380.06;7259965;19;2004367;-55
2022/12/04 02:48:32;;;;;;;0.00;0.00;;;;;;;8.31;68.59;101363.56;7355470;19;20031;-54
2022/12/04 02:51:01;;;;;;;0.10;0.10;;;;;;;8.37;68.44;101367.94;7360615;19;20014;-53
2022/12/04 02:53:33;;;;;;;0.10;0.10;;;;;;;8.36;68.83;101361.84;7362635;19;20006;-55
2022/12/04 02:56:05;;;;;;;0.00;0.00;;;;;;;8.35;68.59;101369.63;7362088;19;20011;-55
2022/12/04 02:58:47;;;;;;;0.00;0.00;;;;;;;8.33;68.78;101362.72;7352215;19;20010;-56
2022/12/04 03:01:18;;;;;;;0.00;0.00;;;;;;;8.22;68.71;101353.22;7357213;19;20607;-55
2022/12/04 03:03:56;;;;;;;0.00;0.00;;;;;;;8.31;68.41;101366.16;7360140;19;20050;-53
2022/12/04 03:06:23;;;;;;;0.00;0.00;;;;;;;8.28;68.49;101374.00;7357742;19;20006;-55
2022/12/04 03:09:17;;;;;;;0.00;0.00;;;;;;;8.24;67.83;101361.84;7358698;19;20753;-52
2022/12/04 03:11:51;;;;;;;0.00;0.00;;;;;;;8.24;67.88;101378.34;7255780;19;2004129;-52
2022/12/04 03:14:23;;;;;;;0.10;0.10;;;;;;;8.07;67.94;101328.94;7361177;19;20722;-53
2022/12/04 03:16:53;;;;;;;0.05;0.05;;;;;;;8.19;68.07;101353.19;7357890;19;20029;-54
2022/12/04 03:19:23;;;;;;;0.03;0.03;;;;;;;8.06;68.52;101348.03;7360034;19;20687;-53
2022/12/04 03:21:56;;;;;;;0.00;0.00;;;;;;;8.14;68.86;101357.56;7357965;19;20014;-56
2022/12/04 03:24:39;;;;;;;0.00;0.00;;;;;;;8.09;68.84;101361.91;7354387;19;20096;-52
2022/12/04 03:27:32;;;;;;;0.00;0.00;;;;;;;8.08;68.34;101350.63;7355855;19;20014;-55
2022/12/04 03:30:03;;;;;;;0.00;0.00;;;;;;;8.07;69.19;101352.38;7256292;19;2004428;-52
2022/12/04 03:32:33;;;;;;;0.03;0.03;;;;;;;8.06;69.04;101345.44;7359700;19;20021;-55
2022/12/04 03:35:10;;;;;;;0.00;0.00;;;;;;;8.04;69.40;101344.56;7357305;19;20021;-55
2022/12/04 03:38:03;;;;;;;0.00;0.00;;;;;;;8.07;68.84;101354.97;7360406;19;20022;-56
2022/12/04 03:40:40;;;;;;;0.00;0.00;;;;;;;7.99;69.37;101343.69;7258424;19;2004734;-54
2022/12/04 03:43:27;;;;;;;0.00;0.00;;;;;;;8.07;68.99;101365.38;7358437;19;20004;-56
2022/12/04 03:46:04;;;;;;;0.00;0.00;;;;;;;8.06;69.20;101368.84;7358590;19;20017;-53
2022/12/04 03:48:54;;;;;;;0.00;0.00;;;;;;;8.07;68.40;101362.78;7357708;19;20429;-53
2022/12/04 03:51:23;;;;;;;0.03;0.03;;;;;;;8.07;69.04;101375.78;7359836;19;20091;-51
2022/12/04 03:54:15;;;;;;;0.00;0.00;;;;;;;8.06;68.06;101363.66;7362796;19;20113;-51
2022/12/04 03:56:47;;;;;;;0.00;0.00;;;;;;;7.95;69.16;101360.16;7363716;19;20022;-55
2022/12/04 03:59:25;;;;;;;0.00;0.00;;;;;;;7.93;69.38;101367.13;7365091;19;20043;-55
2022/12/04 04:01:54;;;;;;;0.10;0.10;;;;;;;7.86;69.65;101368.00;7361984;19;20010;-55
2022/12/04 04:04:29;;;;;;;0.00;0.00;;;;;;;7.71;69.80;101368.88;7350191;19;20011;-52
2022/12/04 04:07:01;;;;;;;0.00;0.00;;;;;;;7.70;69.36;101374.06;7362080;19;20039;-52
2022/12/04 04:09:32;;;;;;;0.00;0.00;;;;;;;7.72;70.18;101382.75;7363653;19;20023;-52
2022/12/04 04:12:06;;;;;;;0.08;0.08;;;;;;;7.69;70.34;101380.13;7365863;19;20003;-55
2022/12/04 04:26:02;;;;;;;0.10;0.10;;;;;;;7.33;70.81;101316.03;7358895;19;20986;-56
2022/12/04 04:28:37;;;;;;;0.00;0.00;;;;;;;7.49;70.78;101343.72;7358318;19;20006;-53
2022/12/04 04:31:16;;;;;;;0.10;0.10;;;;;;;7.67;70.83;101376.69;7357949;19;20604;-55
2022/12/04 04:33:59;;;;;;;0.00;0.00;;;;;;;7.51;70.43;101350.69;7361288;19;20006;-55
2022/12/04 04:36:56;;;;;;;0.05;0.05;;;;;;;7.56;70.30;101368.00;7357862;19;21050;-54
2022/12/04 04:39:39;;;;;;;0.10;0.10;;;;;;;7.65;70.74;101375.78;7257082;19;2004554;-52
2022/12/04 04:42:16;;;;;;;0.00;0.00;;;;;;;7.62;71.12;101370.59;7359717;19;20007;-54
2022/12/04 04:44:50;;;;;;;0.10;0.10;;;;;;;7.64;71.11;101371.47;7357536;19;20013;-52
2022/12/04 04:47:24;;;;;;;0.00;0.00;;;;;;;7.63;71.46;101373.19;7361026;19;20583;-55
2022/12/04 04:49:52;;;;;;;0.00;0.00;;;;;;;7.47;71.85;101351.53;7359943;19;20045;-55
2022/12/04 04:52:19;;;;;;;;;;;;;;;7.67;69.55;101358.47;7360842;19;20034;-56
2022/12/04 04:54:46;;;;;;;0.00;0.00;;;;;;;7.52;71.31;101355.00;7361314;19;19915;-54
2022/12/04 04:57:11;;;;;;;0.10;0.10;;;;;;;7.63;71.70;101367.13;7359700;19;20011;-54
2022/12/04 04:59:37;;;;;;;0.00;0.00;;;;;;;7.60;71.70;101367.13;7358231;19;20021;-55
2022/12/04 05:02:02;;;;;;;0.00;0.00;;;;;;;7.66;72.07;101364.56;7358213;19;20117;-56
2022/12/04 05:04:28;;;;;;;0.00;0.00;;;;;;;7.63;72.03;101356.75;7357681;19;20021;-54
2022/12/04 05:06:53;;;;;;;0.00;0.00;;;;;;;7.68;72.24;101362.81;7360715;19;20014;-54
2022/12/04 05:09:19;;;;;;;0.00;0.00;;;;;;;7.70;72.21;101366.25;7358061;19;21010;-56
2022/12/04 05:11:44;;;;;;;0.10;0.10;;;;;;;7.75;72.30;101372.31;7354498;19;20473;-52
2022/12/04 05:14:09;;;;;;;0.00;0.00;;;;;;;7.76;72.31;101369.75;7358812;19;20645;-54
2022/12/04 05:16:35;;;;;;;0.00;0.00;;;;;;;7.81;71.94;101372.34;7360188;19;20353;-54
2022/12/04 05:21:45;;;;;;;0.00;0.00;;;;;;;7.80;71.63;101360.19;7359795;19;20042;-55
2022/12/04 05:24:10;;;;;;;0.00;0.00;;;;;;;7.83;71.96;101364.53;7359277;19;20006;-56
2022/12/04 05:26:35;;;;;;;0.00;0.00;;;;;;;7.78;72.06;101356.72;7360006;19;20015;-55
2022/12/04 05:29:01;;;;;;;0.10;0.10;;;;;;;7.80;71.57;101357.59;7358196;19;20090;-55
2022/12/04 05:31:26;;;;;;;0.10;0.10;;;;;;;7.94;71.70;101373.19;7361029;19;20074;-55
2022/12/04 05:33:52;;;;;;;0.00;0.00;;;;;;;7.92;71.61;101378.41;7360174;19;20074;-55
2022/12/04 05:36:17;;;;;;;0.10;0.10;;;;;;;7.80;71.35;101344.59;7357815;19;20014;-56
2022/12/04 05:38:42;;;;;;;0.10;0.10;;;;;;;7.83;71.16;101356.72;7361629;19;20462;-55
2022/12/04 05:41:08;;;;;;;0.00;0.00;;;;;;;7.76;71.35;101348.94;7356389;19;20014;-55
2022/12/04 05:43:34;;;;;;;0.00;0.00;;;;;;;7.91;71.24;101379.28;7358860;19;20053;-56
2022/12/04 05:46:07;;;;;;;0.00;0.00;;;;;;;7.92;70.47;101375.78;7358314;19;20013;-60
2022/12/04 05:48:34;;;;;;;0.00;0.00;;;;;;;7.87;70.82;101377.53;7361119;19;20010;-55
2022/12/04 05:51:00;;;;;;;0.00;0.00;;;;;;;7.83;71.29;101370.59;7359296;19;20010;-54
2022/12/04 05:53:25;;;;;;;0.10;0.10;;;;;;;7.80;71.21;101370.59;7358891;19;20106;-54
2022/12/04 05:55:56;;;;;;;0.00;0.00;;;;;;;7.83;71.18;101374.94;7358845;19;20014;-55
2022/12/04 05:58:21;;;;;;;0.00;0.00;;;;;;;7.79;71.31;101368.84;7356996;19;20569;-53
2022/12/04 06:00:47;;;;;;;0.00;0.00;;;;;;;7.73;71.21;101369.72;7358119;19;20030;-54
2022/12/04 06:03:12;;;;;;;0.00;0.00;;;;;;;7.74;71.07;101375.78;7356125;19;20010;-53
2022/12/04 06:05:37;;;;;;;0.00;0.00;;;;;;;7.72;71.12;101372.34;7358915;19;20628;-55
2022/12/04 06:08:03;;;;;;;0.00;0.00;;;;;;;7.67;71.01;101359.34;7356363;19;20766;-55
2022/12/04 06:10:28;;;;;;;0.00;0.00;;;;;;;7.70;70.98;101368.84;7357500;19;20006;-53
2022/12/04 06:12:56;;;;;;;0.00;0.00;;;;;;;7.67;71.25;101374.06;7358459;19;20021;-55
2022/12/04 06:15:22;;;;;;;;;;;;;;;7.68;69.52;101375.81;7357921;19;20745;-54
2022/12/04 06:17:47;;;;;;;0.00;0.00;;;;;;;7.46;70.27;101365.41;7357915;19;19923;-53
2022/12/04 06:20:12;;;;;;;0.00;0.00;;;;;;;7.56;70.43;101378.41;7355863;19;20026;-56
2022/12/04 06:22:38;;;;;;;0.00;0.00;;;;;;;7.53;70.50;101385.31;7359690;19;20642;-55
2022/12/04 06:25:04;;;;;;;0.00;0.00;;;;;;;7.49;70.58;101383.56;7354680;19;20029;-55
2022/12/04 06:27:29;;;;;;;0.00;0.00;;;;;;;7.41;70.68;101372.34;7358879;19;20368;-55
2022/12/04 06:29:54;;;;;;;0.00;0.00;;;;;;;7.37;70.86;101375.78;7355501;19;20487;-55
2022/12/04 06:32:20;;;;;;;0.00;0.00;;;;;;;7.38;71.09;101382.72;7358497;19;20018;-55
2022/12/04 06:34:45;;;;;;;0.00;0.00;;;;;;;7.36;71.41;101389.66;7358201;19;20029;-55
2022/12/04 06:37:10;;;;;;;0.08;0.08;;;;;;;7.27;71.26;101371.44;7358514;19;20824;-55
2022/12/04 06:39:36;;;;;;;0.00;0.00;;;;;;;7.36;71.57;101387.03;7357235;19;20081;-55
2022/12/04 06:42:01;;;;;;;0.10;0.10;;;;;;;7.36;71.39;101394.84;7357734;19;20927;-56
2022/12/04 06:44:27;;;;;;;0.00;0.00;;;;;;;7.33;70.56;101379.22;7357856;19;20022;-53
2022/12/04 06:46:52;;;;;;;0.00;0.00;;;;;;;7.34;70.91;101388.75;7357640;19;20078;-54
2022/12/04 06:49:21;;;;;;;0.00;0.00;;;;;;;7.21;70.97;101364.50;7356119;19;20893;-55
2022/12/04 06:51:46;;;;;;;0.00;0.00;;;;;;;7.30;70.88;101389.66;7357711;19;20041;-54
2022/12/04 06:54:12;;;;;;;0.00;0.00;;;;;;;7.14;71.07;101372.28;7355637;19;20674;-56
2022/12/04 06:56:37;;;;;;;0.10;0.10;;;;;;;7.19;71.39;101387.00;7357010;19;20014;-55
2022/12/04 06:59:03;;;;;;;0.05;0.05;;;;;;;7.11;71.48;101374.88;7350531;19;20095;-56
2022/12/04 07:01:31;;;;;;;0.00;0.00;;;;;;;7.23;71.26;101409.53;7360871;19;20034;-55
2022/12/04 07:03:57;;;;;;;0.00;0.00;;;;;;;7.23;71.68;101421.66;7360474;19;20017;-51
2022/12/04 07:06:27;;;;;;;0.00;0.00;;;;;;;7.22;70.79;101414.72;7361061;19;20010;-55
2022/12/04 07:08:57;;;;;;;0.08;0.08;;;;;;;7.21;70.91;101423.38;7361988;19;20384;-54
2022/12/04 07:11:23;;;;;;;0.00;0.00;;;;;;;7.20;70.98;101416.47;7361682;19;20049;-55
2022/12/04 07:13:49;;;;;;;0.00;0.00;;;;;;;7.17;71.18;101419.03;7358302;19;20479;-55
2022/12/04 07:16:17;;;;;;;0.00;0.00;;;;;;;7.22;70.79;101422.50;7359256;19;20023;-54
2022/12/04 07:18:43;;;;;;;0.00;0.00;;;;;;;7.11;70.87;101400.84;7361278;19;20014;-54
2022/12/04 07:21:12;;;;;;;0.00;0.00;;;;;;;7.18;71.30;101400.00;7346870;19;20055;-55
2022/12/04 07:23:38;;;;;;;0.00;0.00;;;;;;;7.20;70.86;101413.88;7357152;19;20046;-54
2022/12/04 07:26:08;;;;;;;0.00;0.00;;;;;;;7.23;70.74;101408.66;7370111;19;20356;-53
2022/12/04 07:28:35;;;;;;;0.00;0.00;;;;;;;7.21;70.98;101411.25;7371408;19;20010;-55
2022/12/04 07:31:10;;;;;;;0.00;0.00;;;;;;;7.24;71.03;101400.00;7371282;19;20028;-54
2022/12/04 07:33:36;;;;;;;0.00;0.00;;;;;;;7.22;70.69;101397.41;7373746;19;20010;-55
2022/12/04 07:36:05;;;;;;;0.00;0.00;;;;;;;7.24;71.08;101398.25;7369213;19;20029;-52
2022/12/04 07:38:31;;;;;;;0.00;0.00;;;;;;;7.24;71.29;101405.19;7372400;19;20022;-53
2022/12/04 07:41:02;;;;;;;0.10;0.10;;;;;;;7.27;70.90;101406.06;7369714;19;20029;-55
2022/12/04 07:43:29;;;;;;;0.00;0.00;;;;;;;7.27;71.29;101415.59;7373153;19;20006;-52
2022/12/04 07:45:55;;;;;;;0.00;0.00;;;;;;;7.28;71.06;101415.59;7372854;19;20105;-53
2022/12/04 07:48:20;;;;;;;0.00;0.00;;;;;;;7.29;71.06;101408.66;7374235;19;20034;-56
2022/12/04 07:50:46;;;;;;;0.00;0.00;;;;;;;7.28;71.00;101397.41;7374855;19;20745;-56
2022/12/04 07:53:11;;;;;;;0.00;0.00;;;;;;;7.32;70.99;101403.50;7372697;19;20052;-55
2022/12/04 07:55:37;;;;;;;0.00;0.00;;;;;;;7.33;71.08;101399.16;7372026;19;20010;-56
2022/12/04 07:58:02;;;;;;;0.00;0.00;;;;;;;7.27;70.98;101387.88;7372707;19;20018;-54
2022/12/04 08:00:28;;;;;;;0.00;0.00;;;;;;;7.21;70.81;101374.91;7368300;19;20002;-56
2022/12/04 08:02:53;;;;;;;0.00;0.00;;;;;;;6.99;70.81;101329.84;7371957;19;20893;-53
2022/12/04 08:05:19;;;;;;;0.10;0.10;;;;;;;7.32;71.03;101393.09;7370115;19;20521;-54
2022/12/04 08:07:44;;;;;;;0.00;0.00;;;;;;;7.31;70.73;101399.16;7373178;19;20743;-55
2022/12/04 08:10:10;;;;;;;0.00;0.00;;;;;;;7.26;70.57;101387.91;7374598;19;20002;-55
2022/12/04 08:12:35;;;;;;;0.05;0.05;;;;;;;7.08;70.78;101375.72;7370136;19;20018;-54
2022/12/04 08:15:01;;;;;;;0.05;0.05;;;;;;;7.20;70.45;101409.53;7372381;19;20019;-54
2022/12/04 08:17:26;;;;;;;0.00;0.00;;;;;;;7.20;69.72;101416.47;7371894;19;20644;-53
2022/12/04 08:19:52;;;;;;;0.00;0.00;;;;;;;7.19;69.93;101419.91;7371276;19;20745;-55
2022/12/04 08:22:17;;;;;;;0.05;0.05;;;;;;;7.13;69.78;101412.97;7370631;19;20015;-55
2022/12/04 08:24:43;;;;;;;0.03;0.03;;;;;;;7.10;69.88;101409.50;7362490;19;20034;-56
2022/12/04 08:27:08;;;;;;;0.00;0.00;;;;;;;7.14;70.50;101419.88;7356703;19;20018;-55
2022/12/04 08:29:34;;;;;;;0.00;0.00;;;;;;;7.08;70.21;101413.81;7367009;19;20028;-55
2022/12/04 08:31:59;;;;;;;0.00;0.00;;;;;;;7.11;70.82;101419.03;7372320;19;20748;-54
2022/12/04 08:34:24;;;;;;;0.00;0.00;;;;;;;6.79;70.65;101362.66;7372234;19;20013;-54
2022/12/04 08:36:50;;;;;;;0.00;0.00;;;;;;;7.16;70.90;101435.50;7352448;19;20006;-54
2022/12/04 08:39:15;;;;;;;0.00;0.00;;;;;;;6.84;70.96;101379.09;7364505;19;20010;-54
2022/12/04 08:41:41;;;;;;;0.00;0.00;;;;;;;7.20;70.79;101437.25;7362307;19;20014;-54
2022/12/04 08:44:06;;;;;;;0.10;0.10;;;;;;;7.20;71.22;101422.53;7364918;19;20002;-52
2022/12/04 08:46:32;;;;;;;0.00;0.00;;;;;;;7.22;71.15;101417.31;7362478;19;20029;-54
2022/12/04 08:48:57;;;;;;;0.08;0.08;;;;;;;7.23;71.42;101419.06;7362252;19;20015;-55
2022/12/04 08:51:26;;;;;;;0.00;0.00;;;;;;;7.26;71.44;101413.88;7363258;19;20038;-52
2022/12/04 08:53:54;;;;;;;0.00;0.00;;;;;;;7.28;71.33;101414.72;7357497;19;20010;-53
2022/12/04 08:56:19;;;;;;;;;;;;;;;7.35;70.87;101411.31;7358205;19;20014;-55
2022/12/04 08:58:44;;;;;;;0.00;0.00;;;;;;;7.28;71.08;101396.53;7355915;19;20272;-55
2022/12/04 09:01:12;;;;;;;0.00;0.00;;;;;;;7.36;71.29;101410.44;7359711;19;20022;-55
2022/12/04 09:03:38;;;;;;;0.00;0.00;;;;;;;7.33;71.55;101415.59;7354248;19;20021;-53
2022/12/04 09:06:05;;;;;;;0.05;0.05;;;;;;;7.38;71.11;101428.63;7358173;19;20014;-57
2022/12/04 09:08:32;;;;;;;0.10;0.10;;;;;;;7.39;71.20;101422.53;7359430;19;20039;-53
2022/12/04 09:11:05;;;;;;;0.00;0.00;;;;;;;7.41;70.84;101429.50;7361842;19;20536;-51
2022/12/04 09:13:31;;;;;;;0.00;0.00;;;;;;;7.41;71.10;101437.28;7361864;19;20022;-53
2022/12/04 09:15:56;;;;;;;0.00;0.00;;;;;;;7.42;71.05;101431.22;7363037;19;20002;-55
2022/12/04 09:18:22;;;;;;;0.00;0.00;;;;;;;7.39;71.10;101419.94;7361945;19;20010;-54
2022/12/04 09:20:58;;;;;;;0.00;0.00;;;;;;;7.44;71.11;101423.41;7364101;19;20011;-54
2022/12/04 09:23:24;;;;;;;0.00;0.00;;;;;;;7.43;71.28;101417.34;7364314;19;20011;-54
2022/12/04 09:25:50;;;;;;;0.00;0.00;;;;;;;7.27;71.25;101395.69;7357936;19;20029;-53
2022/12/04 09:28:15;;;;;;;0.00;0.00;;;;;;;7.45;71.62;101428.66;7362588;19;20552;-53
2022/12/04 09:30:41;;;;;;;0.00;0.00;;;;;;;7.47;71.88;101424.31;7362946;19;20880;-54
2022/12/04 09:33:06;;;;;;;0.03;0.03;;;;;;;7.50;72.00;101428.63;7360626;19;20014;-53
2022/12/04 09:35:32;;;;;;;0.00;0.00;;;;;;;7.49;71.60;101416.50;7361160;19;20090;-53
2022/12/04 09:37:58;;;;;;;0.00;0.00;;;;;;;7.49;71.64;101417.38;7358440;19;20013;-56
2022/12/04 09:40:29;;;;;;;0.00;0.00;;;;;;;7.59;71.63;101428.63;7362406;19;20011;-52
2022/12/04 09:43:12;;;;;;;0.00;0.00;;;;;;;7.62;71.54;101427.78;7364207;19;20010;-55
2022/12/04 09:45:49;;;;;;;0.00;0.00;;;;;;;7.48;71.26;101409.56;7362813;19;20419;-53
2022/12/04 09:48:17;;;;;;;0.00;0.00;;;;;;;7.64;71.43;101436.44;7359222;19;20038;-53
2022/12/04 09:50:44;;;;;;;0.00;0.00;;;;;;;7.63;71.75;101420.00;7361045;19;20017;-54
2022/12/04 09:53:16;;;;;;;0.00;0.00;;;;;;;7.66;71.39;101439.94;7363227;19;20118;-54
2022/12/04 09:55:46;;;;;;;0.00;0.00;;;;;;;7.68;71.15;101435.59;7362285;19;20014;-55
2022/12/04 09:58:20;;;;;;;0.00;0.00;;;;;;;7.70;71.50;101441.66;7351970;19;20022;-55
2022/12/04 10:00:49;;;;;;;0.00;0.00;;;;;;;7.68;71.05;101433.84;7363638;19;20082;-56
2022/12/04 10:03:20;;;;;;;0.00;0.00;;;;;;;7.75;70.97;101434.72;7358413;19;20117;-54
2022/12/04 10:06:03;;;;;;;0.10;0.10;;;;;;;7.78;70.94;101442.53;7360347;19;20066;-54
2022/12/04 10:08:34;;;;;;;0.00;0.00;;;;;;;7.77;71.20;101444.25;7361691;19;20017;-52
2022/12/04 10:11:27;;;;;;;0.00;0.00;;;;;;;7.81;70.75;101450.34;7361799;19;20006;-54
2022/12/04 10:13:55;;;;;;;0.00;0.00;;;;;;;7.79;70.96;101447.72;7260511;19;2004507;-55
2022/12/04 10:16:42;;;;;;;0.00;0.00;;;;;;;7.83;70.73;101447.75;7361516;19;20680;-52
2022/12/04 10:19:30;;;;;;;0.00;0.00;;;;;;;7.70;70.85;101421.72;7363765;19;20044;-54
2022/12/04 10:22:27;;;;;;;0.10;0.10;;;;;;;7.87;70.41;101445.13;7363240;19;20007;-54
2022/12/04 10:24:56;;;;;;;0.00;0.00;;;;;;;7.64;70.96;101403.53;7256231;19;2004336;-54
2022/12/04 10:27:31;;;;;;;0.00;0.00;;;;;;;7.86;70.72;101453.81;7362800;19;20011;-53
2022/12/04 10:30:22;;;;;;;0.10;0.10;;;;;;;7.90;70.98;101454.66;7363170;19;20025;-55
2022/12/04 10:32:55;;;;;;;0.00;0.00;;;;;;;7.82;71.10;101436.47;7256696;19;2004159;-54
2022/12/04 10:35:28;;;;;;;0.10;0.10;;;;;;;7.87;70.68;101444.28;7362109;19;20485;-55
2022/12/04 10:38:01;;;;;;;0.00;0.00;;;;;;;7.96;70.89;101444.28;7362846;19;20517;-54
2022/12/04 10:40:36;;;;;;;0.00;0.00;;;;;;;7.95;70.88;101448.59;7357476;19;20014;-55
2022/12/04 10:43:13;;;;;;;0.00;0.00;;;;;;;8.00;70.61;101446.84;7362523;19;20617;-55
2022/12/04 10:45:38;;;;;;;0.00;0.00;;;;;;;7.99;71.12;101442.53;7356253;19;20027;-54
2022/12/04 10:48:06;;;;;;;0.00;0.00;;;;;;;8.04;71.07;101448.59;7362537;19;20181;-51
2022/12/04 10:50:32;;;;;;;0.00;0.00;;;;;;;8.10;71.19;101454.66;7360790;19;20010;-53
2022/12/04 10:52:58;;;;;;;0.00;0.00;;;;;;;8.15;71.01;101445.13;7361487;19;20612;-54
2022/12/04 10:55:37;;;;;;;0.00;0.00;;;;;;;8.23;70.37;101443.38;7360671;19;20038;-55
2022/12/04 10:58:02;;;;;;;0.00;0.00;;;;;;;8.23;70.42;101435.59;7361434;19;20573;-55
2022/12/04 11:00:33;;;;;;;0.00;0.00;;;;;;;8.30;70.53;101437.28;7357597;19;20059;-56
2022/12/04 11:03:09;;;;;;;0.10;0.10;;;;;;;8.29;70.31;101428.63;7359115;19;20010;-55
2022/12/04 11:05:52;;;;;;;0.10;0.10;;;;;;;8.38;70.12;101433.00;7359633;19;20082;-53
2022/12/04 11:08:31;;;;;;;0.00;0.00;;;;;;;8.43;70.28;101427.78;7359731;19;20482;-56
2022/12/04 11:11:07;;;;;;;0.10;0.10;;;;;;;8.49;69.98;101430.38;7362507;19;20010;-53
2022/12/04 11:13:33;;;;;;;0.00;0.00;;;;;;;8.46;70.20;101419.94;7360555;19;20014;-53
2022/12/04 11:15:58;;;;;;;0.00;0.00;;;;;;;8.54;70.28;101424.28;7362038;19;20082;-53
2022/12/04 11:18:25;;;;;;;0.00;0.00;;;;;;;8.58;70.21;101426.00;7361258;19;20538;-56
2022/12/04 11:20:50;;;;;;;0.00;0.00;;;;;;;8.60;69.78;101422.53;7359733;19;20070;-55
2022/12/04 11:23:17;;;;;;;0.00;0.00;;;;;;;8.62;69.81;101424.25;7359398;19;20111;-53
2022/12/04 11:25:51;;;;;;;0.00;0.00;;;;;;;8.67;70.04;101424.22;7360905;19;20051;-55
2022/12/04 11:28:21;;;;;;;0.00;0.00;;;;;;;8.69;69.70;101418.16;7359611;19;20021;-53
2022/12/04 11:30:55;;;;;;;0.05;0.05;;;;;;;8.73;69.88;101419.03;7359276;19;20007;-54
2022/12/04 11:33:43;;;;;;;0.00;0.00;;;;;;;8.76;69.97;101419.84;7359939;19;20010;-56
2022/12/04 11:36:27;;;;;;;0.00;0.00;;;;;;;8.46;69.94;101357.47;7359106;19;20024;-55
2022/12/04 11:39:22;;;;;;;0.05;0.05;;;;;;;8.80;69.60;101412.91;7360758;19;20912;-55
2022/12/04 11:41:58;;;;;;;0.00;0.00;;;;;;;8.88;69.70;101407.69;7254608;19;2004169;-53
2022/12/04 11:44:26;;;;;;;0.00;0.00;;;;;;;8.92;70.06;101407.66;7359942;19;20013;-55
2022/12/04 11:46:54;;;;;;;0.00;0.00;;;;;;;8.97;69.84;101408.50;7357639;19;20015;-55
2022/12/04 11:49:21;;;;;;;;;;;;;;;9.07;69.93;101407.59;7360661;19;20801;-56
2022/12/04 11:52:08;;;;;;;0.03;0.03;;;;;;;9.13;69.90;101414.50;7359333;19;20254;-55
2022/12/04 11:55:11;;;;;;;0.00;0.00;;;;;;;9.22;69.95;101404.00;7359048;19;20010;-55
2022/12/04 11:57:48;;;;;;;0.00;0.00;;;;;;;9.29;69.81;101410.06;7258485;19;2004312;-55
2022/12/04 12:00:17;;;;;;;0.00;0.00;;;;;;;9.30;69.78;101403.97;7357748;19;20613;-54
2022/12/04 12:03:03;;;;;;;0.00;0.00;;;;;;;9.38;69.67;101410.00;7358425;19;20018;-56